Time;durP1;ratioP1;P1;durP2;ratioP2;P2;SDS_P1;SDS_P2;PMS_P1;PMS_P2;Temp;Humidity;BMP_temperature;BMP_pressure;BME280_temperature;BME280_humidity;BME280_pressure;Samples;Min_cycle;Max_cycle;Signal;HPM_P1;HPM_P2
2021/07/31 00:01:50;;;;;;;5.90;1.77;;;19.50;57.80;;;;;;5073770;28;20449;-74
2021/07/31 00:04:17;;;;;;;7.73;1.73;;;19.50;57.90;;;;;;5073627;28;20485;-72
2021/07/31 00:06:44;;;;;;;3.37;1.63;;;19.50;58.00;;;;;;5073882;28;20527;-72
2021/07/31 00:09:11;;;;;;;5.60;1.50;;;19.50;58.10;;;;;;5073815;28;20444;-71
2021/07/31 00:11:38;;;;;;;5.57;1.47;;;19.50;58.10;;;;;;5073484;28;20449;-72
2021/07/31 00:14:04;;;;;;;2.63;1.23;;;19.50;58.80;;;;;;5073411;28;20895;-72
2021/07/31 00:16:32;;;;;;;5.30;1.20;;;19.50;58.70;;;;;;5073466;28;20448;-72
2021/07/31 00:18:59;;;;;;;5.40;1.60;;;19.50;58.30;;;;;;5073011;28;20899;-72
2021/07/31 00:21:26;;;;;;;2.33;1.30;;;19.60;58.30;;;;;;5073266;28;20452;-72
2021/07/31 00:23:53;;;;;;;4.63;1.33;;;19.50;58.70;;;;;;5072969;28;20835;-72
2021/07/31 00:26:20;;;;;;;5.37;1.60;;;19.50;59.00;;;;;;5073352;28;20444;-72
2021/07/31 00:28:47;;;;;;;6.27;1.93;;;19.50;59.00;;;;;;5073330;28;20457;-72
2021/07/31 00:31:13;;;;;;;6.83;1.63;;;19.50;59.00;;;;;;5073306;28;20445;-73
2021/07/31 00:33:41;;;;;;;3.73;2.07;;;19.40;59.20;;;;;;5072914;28;20992;-74
2021/07/31 00:36:08;;;;;;;9.80;1.80;;;19.40;59.60;;;;;;5073261;28;20459;-73
2021/07/31 00:38:35;;;;;;;4.40;1.60;;;19.40;59.50;;;;;;5072924;28;20816;-73
2021/07/31 00:41:02;;;;;;;4.90;1.80;;;19.30;59.70;;;;;;5073199;28;20452;-73
2021/07/31 00:43:28;;;;;;;8.83;1.80;;;19.40;59.80;;;;;;5073104;28;20456;-73
2021/07/31 00:45:55;;;;;;;3.30;1.60;;;19.30;59.80;;;;;;5073084;28;20555;-73
2021/07/31 00:48:22;;;;;;;4.33;1.33;;;19.30;59.70;;;;;;5073119;28;20444;-73
2021/07/31 00:50:51;;;;;;;4.53;1.50;;;19.30;59.70;;;;;;5074023;28;20445;-73
2021/07/31 00:53:19;;;;;;;7.00;1.50;;;19.30;60.60;;;;;;5077000;28;20472;-73
2021/07/31 00:55:46;;;;;;;3.10;1.30;;;19.30;60.50;;;;;;5076994;28;20444;-73
2021/07/31 00:58:13;;;;;;;5.53;1.63;;;19.20;60.60;;;;;;5076941;28;20444;-73
2021/07/31 01:00:40;;;;;;;8.53;1.50;;;19.20;60.90;;;;;;5076612;28;20925;-73
2021/07/31 01:03:06;;;;;;;5.53;1.40;;;19.20;60.60;;;;;;5076775;28;20475;-73
2021/07/31 01:05:35;;;;;;;3.30;1.50;;;19.20;60.40;;;;;;5076699;28;20480;-73
2021/07/31 01:08:04;;;;;;;6.57;1.80;;;19.20;61.50;;;;;;5076754;28;20448;-73
2021/07/31 01:10:32;;;;;;;8.63;1.57;;;19.20;61.20;;;;;;5076372;28;20447;-73
2021/07/31 01:13:01;;;;;;;6.07;2.10;;;19.20;61.20;;;;;;5076269;28;21005;-73
2021/07/31 01:15:28;;;;;;;4.90;1.83;;;19.20;61.50;;;;;;5076588;28;20527;-73
2021/07/31 01:17:55;;;;;;;8.97;1.93;;;19.10;61.40;;;;;;5076560;28;20474;-73
2021/07/31 01:20:23;;;;;;;8.53;1.77;;;19.20;62.10;;;;;;5076518;28;20452;-73
2021/07/31 01:22:51;;;;;;;6.93;2.10;;;19.10;62.70;;;;;;5076409;28;20479;-73
2021/07/31 01:25:19;;;;;;;10.23;2.00;;;19.10;62.20;;;;;;5076411;28;20480;-73
2021/07/31 01:27:46;;;;;;;7.77;1.70;;;19.10;62.00;;;;;;5076396;28;20543;-73
2021/07/31 01:30:13;;;;;;;9.50;1.70;;;19.10;62.30;;;;;;5076384;28;20444;-73
2021/07/31 01:32:39;;;;;;;5.67;1.70;;;19.10;62.40;;;;;;5076256;28;20472;-73
2021/07/31 01:35:07;;;;;;;5.30;2.20;;;19.10;62.90;;;;;;5076262;28;20433;-73
2021/07/31 01:37:33;;;;;;;7.40;1.70;;;19.00;62.50;;;;;;5076203;28;20455;-73
2021/07/31 01:40:02;;;;;;;5.60;2.10;;;19.00;62.60;;;;;;5076161;28;20441;-73
2021/07/31 01:42:28;;;;;;;17.80;2.47;;;19.00;62.90;;;;;;5075793;28;20953;-73
2021/07/31 01:44:55;;;;;;;9.77;1.67;;;19.00;62.70;;;;;;5076043;28;20483;-73
2021/07/31 01:47:22;;;;;;;7.40;2.07;;;19.00;63.70;;;;;;5076063;28;20790;-73
2021/07/31 01:49:48;;;;;;;5.97;1.60;;;18.90;63.20;;;;;;5075973;28;20471;-73
2021/07/31 01:52:15;;;;;;;3.37;2.23;;;18.90;63.20;;;;;;5075874;28;20441;-73
2021/07/31 01:54:42;;;;;;;5.80;2.10;;;18.90;63.40;;;;;;5075891;28;20486;-73
2021/07/31 01:57:10;;;;;;;7.63;2.00;;;18.90;63.30;;;;;;5075520;28;20930;-73
2021/07/31 01:59:36;;;;;;;5.37;1.80;;;18.90;63.30;;;;;;5075814;28;20453;-73
2021/07/31 02:02:05;;;;;;;13.23;2.33;;;18.90;63.30;;;;;;5075519;28;20437;-73
2021/07/31 02:04:33;;;;;;;2.40;1.40;;;18.90;63.10;;;;;;5075559;28;20476;-73
2021/07/31 02:07:00;;;;;;;2.67;1.20;;;18.90;63.00;;;;;;5075681;28;20533;-73
2021/07/31 02:09:27;;;;;;;6.10;2.07;;;18.90;63.30;;;;;;5075683;28;20441;-73
2021/07/31 02:11:54;;;;;;;4.87;1.37;;;18.90;62.70;;;;;;5075562;28;20850;-73
2021/07/31 02:14:22;;;;;;;3.90;1.63;;;19.00;63.10;;;;;;5075149;28;21001;-73
2021/07/31 02:16:49;;;;;;;2.73;1.50;;;18.90;62.70;;;;;;5075169;28;20943;-73
2021/07/31 02:19:15;;;;;;;3.90;1.50;;;18.90;63.30;;;;;;5075433;28;20449;-73
2021/07/31 02:21:42;;;;;;;7.00;1.70;;;19.00;62.40;;;;;;5075177;28;20460;-73
2021/07/31 02:24:09;;;;;;;2.70;1.20;;;18.90;62.20;;;;;;5074964;28;21004;-73
2021/07/31 02:26:35;;;;;;;8.37;2.00;;;18.90;63.10;;;;;;5075234;28;20480;-73
2021/07/31 02:29:02;;;;;;;5.73;1.67;;;19.00;62.50;;;;;;5075244;28;20456;-73
2021/07/31 02:31:31;;;;;;;4.20;1.50;;;18.90;62.30;;;;;;5075202;28;20444;-73
2021/07/31 02:33:57;;;;;;;5.20;1.10;;;19.00;62.30;;;;;;5075078;28;20468;-73
2021/07/31 02:36:24;;;;;;;4.40;1.80;;;19.00;62.10;;;;;;5075072;28;20444;-73
2021/07/31 02:38:51;;;;;;;6.70;1.63;;;19.00;62.60;;;;;;5075037;28;20468;-73
2021/07/31 02:41:19;;;;;;;5.10;1.37;;;19.00;62.30;;;;;;5074971;28;20449;-73
2021/07/31 02:43:46;;;;;;;2.90;1.87;;;18.90;62.40;;;;;;5075750;28;20518;-73
2021/07/31 02:46:12;;;;;;;4.67;1.90;;;18.80;62.80;;;;;;5074816;28;20473;-73
2021/07/31 02:48:41;;;;;;;4.17;1.77;;;18.80;62.80;;;;;;5074528;28;20950;-73
2021/07/31 02:51:09;;;;;;;3.37;2.00;;;18.80;62.80;;;;;;5074831;28;20448;-73
2021/07/31 02:53:36;;;;;;;8.53;2.30;;;18.80;63.10;;;;;;5074710;28;20471;-73
2021/07/31 02:56:03;;;;;;;4.53;2.20;;;18.80;64.00;;;;;;5074363;28;20445;-73
2021/07/31 02:58:30;;;;;;;8.37;1.90;;;18.80;63.70;;;;;;5074636;28;20437;-73
2021/07/31 03:00:57;;;;;;;5.00;1.50;;;18.70;64.20;;;;;;5074644;28;20452;-73
2021/07/31 03:03:24;;;;;;;2.13;1.57;;;18.70;64.00;;;;;;5074486;28;20494;-73
2021/07/31 03:05:56;;;;;;;7.00;2.30;;;18.70;63.80;;;;;;5074411;28;20484;-73
2021/07/31 03:08:23;;;;;;;5.70;1.97;;;18.70;63.90;;;;;;5074435;28;20448;-73
2021/07/31 03:10:54;;;;;;;5.50;2.07;;;18.80;63.80;;;;;;5074435;28;20827;-73
2021/07/31 03:13:21;;;;;;;4.33;2.70;;;18.80;64.50;;;;;;5073395;28;20985;-73
2021/07/31 03:15:48;;;;;;;2.93;1.57;;;18.80;64.90;;;;;;5074324;28;20441;-73
2021/07/31 03:18:14;;;;;;;5.17;1.93;;;18.80;64.20;;;;;;5074253;28;20449;-73
2021/07/31 03:20:45;;;;;;;3.83;1.83;;;18.80;64.10;;;;;;5074288;28;20437;-73
2021/07/31 03:23:13;;;;;;;5.37;1.80;;;18.80;63.90;;;;;;5073735;28;21035;-73
2021/07/31 03:25:40;;;;;;;7.67;2.67;;;18.80;64.50;;;;;;5074024;28;20477;-73
2021/07/31 03:28:07;;;;;;;3.80;1.90;;;18.70;63.90;;;;;;5074071;28;20452;-73
2021/07/31 03:30:34;;;;;;;5.73;2.10;;;18.70;64.50;;;;;;5074044;28;20440;-73
2021/07/31 03:33:00;;;;;;;8.70;2.63;;;18.70;64.80;;;;;;5073626;28;20966;-73
2021/07/31 03:35:27;;;;;;;8.37;2.40;;;18.70;65.50;;;;;;5073986;28;20445;-73
2021/07/31 03:37:54;;;;;;;4.83;1.80;;;18.60;65.60;;;;;;5073916;28;20441;-74
2021/07/31 03:40:22;;;;;;;8.30;2.10;;;18.60;65.20;;;;;;5073893;28;20794;-73
2021/07/31 03:42:48;;;;;;;6.90;2.23;;;18.60;65.40;;;;;;5073811;28;20461;-73
2021/07/31 03:45:15;;;;;;;6.53;1.83;;;18.50;65.70;;;;;;5073725;28;20486;-73
2021/07/31 03:47:42;;;;;;;9.73;2.83;;;18.50;66.10;;;;;;5073769;28;20448;-73
2021/07/31 03:50:10;;;;;;;10.80;2.67;;;18.50;66.60;;;;;;5073794;28;20449;-73
2021/07/31 03:52:36;;;;;;;4.47;1.93;;;18.50;66.80;;;;;;5073360;28;20998;-73
2021/07/31 03:55:05;;;;;;;5.53;2.10;;;18.40;67.20;;;;;;5073667;28;20444;-73
2021/07/31 03:57:33;;;;;;;8.20;2.53;;;18.40;67.60;;;;;;5073358;28;20935;-73
2021/07/31 03:59:59;;;;;;;6.80;2.10;;;18.30;67.90;;;;;;5073616;28;20449;-73
2021/07/31 04:02:26;;;;;;;5.73;2.27;;;18.40;68.00;;;;;;5073546;28;20437;-73
2021/07/31 04:04:53;;;;;;;5.13;2.07;;;18.40;68.60;;;;;;5073198;28;20440;-73
2021/07/31 04:07:20;;;;;;;6.20;1.73;;;18.40;68.60;;;;;;5073524;28;20449;-73
2021/07/31 04:09:46;;;;;;;3.20;2.53;;;18.40;68.40;;;;;;5073518;28;20456;-73
2021/07/31 04:12:13;;;;;;;5.77;2.33;;;18.30;68.50;;;;;;5073191;28;20934;-73
2021/07/31 04:14:41;;;;;;;5.03;2.40;;;18.30;68.60;;;;;;5073158;28;20468;-74
2021/07/31 04:17:08;;;;;;;8.87;2.30;;;18.30;69.10;;;;;;5073168;28;20969;-74
2021/07/31 04:19:35;;;;;;;5.77;2.10;;;18.30;69.40;;;;;;5073434;28;20452;-74
2021/07/31 04:22:01;;;;;;;8.53;2.70;;;18.30;69.40;;;;;;5073222;28;20456;-73
2021/07/31 04:24:28;;;;;;;6.30;2.30;;;18.30;69.20;;;;;;5073967;28;20465;-73
2021/07/31 04:26:55;;;;;;;7.00;2.10;;;18.30;69.60;;;;;;5077203;28;20990;-74
2021/07/31 04:29:22;;;;;;;4.83;1.83;;;18.30;69.50;;;;;;5077194;28;20444;-73
2021/07/31 04:31:50;;;;;;;4.83;2.37;;;18.30;70.10;;;;;;5077153;28;20440;-73
2021/07/31 04:34:17;;;;;;;5.40;2.27;;;18.30;69.40;;;;;;5077380;28;20460;-73
2021/07/31 04:36:44;;;;;;;5.40;1.93;;;18.30;69.60;;;;;;5077363;28;20494;-73
2021/07/31 04:39:10;;;;;;;6.20;2.30;;;18.30;69.70;;;;;;5077350;28;20444;-73
2021/07/31 04:41:37;;;;;;;4.87;1.97;;;18.20;70.10;;;;;;5077003;28;20957;-73
2021/07/31 04:44:04;;;;;;;6.43;2.20;;;18.30;70.60;;;;;;5076893;28;20970;-73
2021/07/31 04:46:31;;;;;;;2.80;2.10;;;18.30;70.70;;;;;;5076824;28;20547;-73
2021/07/31 04:48:59;;;;;;;4.80;1.90;;;18.40;69.80;;;;;;5076857;28;20942;-73
2021/07/31 04:51:26;;;;;;;7.07;2.10;;;18.40;69.50;;;;;;5077166;28;20455;-73
2021/07/31 04:53:52;;;;;;;5.57;1.67;;;18.40;69.40;;;;;;5077069;28;20469;-73
2021/07/31 04:56:19;;;;;;;4.70;1.80;;;18.40;69.60;;;;;;5076635;28;20965;-73
2021/07/31 04:58:46;;;;;;;9.30;2.50;;;18.40;70.00;;;;;;5076975;28;20467;-73
2021/07/31 05:01:12;;;;;;;4.93;2.30;;;18.40;70.20;;;;;;5076883;28;20448;-73
2021/07/31 05:03:39;;;;;;;3.80;1.97;;;18.40;70.00;;;;;;5077416;28;20460;-73
2021/07/31 05:06:07;;;;;;;5.83;2.40;;;18.40;70.10;;;;;;5076726;28;20479;-73
2021/07/31 05:08:34;;;;;;;5.53;1.83;;;18.50;69.80;;;;;;5076448;28;20965;-73
2021/07/31 05:11:06;;;;;;;9.77;2.10;;;18.50;70.00;;;;;;5076702;28;20452;-73
2021/07/31 05:13:33;;;;;;;6.60;2.40;;;18.50;70.30;;;;;;5076653;28;20492;-73
2021/07/31 05:15:59;;;;;;;4.47;2.50;;;18.50;70.10;;;;;;5076627;28;20445;-73
2021/07/31 05:18:26;;;;;;;6.27;3.13;;;18.50;70.00;;;;;;5076539;28;20445;-73
2021/07/31 05:20:53;;;;;;;6.43;2.50;;;18.50;69.80;;;;;;5076538;28;20447;-73
2021/07/31 05:23:21;;;;;;;15.27;2.57;;;18.50;70.50;;;;;;5075994;28;20480;-73
2021/07/31 05:25:47;;;;;;;8.83;2.20;;;18.40;70.30;;;;;;5076379;28;20484;-73
2021/07/31 05:28:15;;;;;;;5.83;2.27;;;18.40;70.10;;;;;;5076413;28;20526;-73
2021/07/31 05:30:42;;;;;;;4.30;2.00;;;18.30;70.10;;;;;;5076063;28;20437;-73
2021/07/31 05:33:10;;;;;;;9.63;2.43;;;18.30;70.60;;;;;;5076263;28;20471;-73
2021/07/31 05:35:36;;;;;;;11.60;2.77;;;18.30;70.50;;;;;;5075988;28;20931;-73
2021/07/31 05:38:03;;;;;;;3.80;2.13;;;18.30;70.80;;;;;;5076397;28;20463;-73
2021/07/31 05:40:31;;;;;;;3.40;2.60;;;18.30;71.00;;;;;;5076227;28;20817;-73
2021/07/31 05:42:58;;;;;;;5.87;2.80;;;18.40;71.30;;;;;;5075828;28;20468;-73
2021/07/31 05:45:26;;;;;;;8.70;2.53;;;18.40;71.30;;;;;;5075777;28;20939;-73
2021/07/31 05:47:56;;;;;;;12.23;2.57;;;18.40;71.10;;;;;;5076072;28;20502;-73
2021/07/31 05:50:23;;;;;;;4.07;2.37;;;18.50;70.40;;;;;;5075755;28;20977;-73
2021/07/31 05:52:50;;;;;;;8.90;2.43;;;18.50;70.50;;;;;;5075903;28;20478;-73
2021/07/31 05:55:17;;;;;;;8.70;2.00;;;18.50;70.80;;;;;;5075915;28;20449;-73
2021/07/31 05:57:45;;;;;;;10.40;2.70;;;18.50;70.30;;;;;;5075584;28;20927;-73
2021/07/31 06:00:13;;;;;;;4.40;2.00;;;18.60;71.10;;;;;;5075840;28;20498;-73
2021/07/31 06:02:40;;;;;;;5.03;1.90;;;18.60;70.50;;;;;;5075739;28;20468;-74
2021/07/31 06:05:08;;;;;;;4.23;2.50;;;18.70;70.80;;;;;;5075730;28;20448;-73
2021/07/31 06:07:35;;;;;;;6.63;2.33;;;18.70;71.00;;;;;;5075623;28;20570;-73
2021/07/31 06:10:02;;;;;;;5.80;2.00;;;18.60;70.80;;;;;;5075628;28;20444;-73
2021/07/31 06:12:28;;;;;;;4.30;2.27;;;18.60;70.50;;;;;;5075531;28;20447;-74
2021/07/31 06:14:56;;;;;;;5.20;2.63;;;18.60;70.40;;;;;;5076109;28;20445;-73
2021/07/31 06:17:23;;;;;;;7.07;2.77;;;18.60;70.20;;;;;;5075113;28;20950;-73
2021/07/31 06:19:50;;;;;;;7.87;2.27;;;18.70;70.50;;;;;;5075449;28;20444;-73
2021/07/31 06:22:16;;;;;;;8.40;2.90;;;18.60;69.70;;;;;;5075159;28;20461;-73
2021/07/31 06:24:43;;;;;;;10.57;2.93;;;18.70;70.80;;;;;;5075398;28;20441;-73
2021/07/31 06:27:10;;;;;;;10.17;2.67;;;18.70;70.20;;;;;;5075305;28;20476;-73
2021/07/31 06:29:36;;;;;;;6.40;2.97;;;18.70;70.30;;;;;;5075307;28;20444;-73
2021/07/31 06:32:05;;;;;;;11.33;2.80;;;18.70;70.50;;;;;;5075258;28;20444;-73
2021/07/31 06:34:32;;;;;;;11.50;2.80;;;18.70;70.60;;;;;;5075896;28;20954;-74
2021/07/31 06:36:59;;;;;;;15.23;2.93;;;18.80;70.30;;;;;;5075125;28;20447;-74
2021/07/31 06:39:27;;;;;;;10.00;2.20;;;18.80;70.60;;;;;;5075091;28;20445;-73
2021/07/31 06:41:54;;;;;;;15.93;3.00;;;18.80;69.80;;;;;;5075042;28;20509;-73
2021/07/31 06:44:20;;;;;;;10.20;2.73;;;18.90;70.50;;;;;;5074907;28;20464;-73
2021/07/31 06:46:47;;;;;;;6.70;2.27;;;19.00;71.00;;;;;;5074848;28;20480;-73
2021/07/31 06:49:15;;;;;;;14.13;4.07;;;19.00;69.80;;;;;;5073572;28;20836;-73
2021/07/31 06:51:42;;;;;;;8.40;2.50;;;19.00;70.10;;;;;;5074811;28;20443;-73
2021/07/31 06:54:08;;;;;;;8.30;2.63;;;19.00;68.80;;;;;;5074685;28;20460;-73
2021/07/31 06:56:36;;;;;;;13.03;2.57;;;19.00;69.10;;;;;;5074685;28;20506;-73
2021/07/31 06:59:03;;;;;;;14.37;3.13;;;19.00;69.20;;;;;;5074651;28;20471;-73
2021/07/31 07:01:30;;;;;;;10.73;3.40;;;19.00;69.50;;;;;;5074614;28;20452;-73
2021/07/31 07:03:57;;;;;;;17.87;3.30;;;19.10;69.90;;;;;;5075060;28;20468;-73
2021/07/31 07:06:25;;;;;;;8.03;2.70;;;19.20;70.00;;;;;;5074432;28;20483;-73
2021/07/31 07:08:52;;;;;;;7.10;2.33;;;19.30;69.50;;;;;;5074152;28;20437;-73
2021/07/31 07:11:19;;;;;;;5.97;2.20;;;19.40;68.20;;;;;;5074371;28;20452;-73
2021/07/31 07:13:45;;;;;;;9.63;3.20;;;19.50;67.80;;;;;;5074283;28;20467;-73
2021/07/31 07:16:12;;;;;;;8.43;2.90;;;19.50;68.10;;;;;;5074241;28;20447;-73
2021/07/31 07:18:39;;;;;;;7.90;2.50;;;19.60;69.60;;;;;;5074225;28;20449;-74
2021/07/31 07:21:07;;;;;;;7.23;1.93;;;19.80;69.10;;;;;;5074277;28;20448;-73
2021/07/31 07:23:36;;;;;;;9.10;2.20;;;19.80;67.10;;;;;;5073713;28;20480;-73
2021/07/31 07:26:03;;;;;;;8.97;2.73;;;19.90;66.80;;;;;;5074059;28;20445;-73
2021/07/31 07:28:30;;;;;;;11.77;2.60;;;19.90;67.10;;;;;;5074109;28;20448;-73
2021/07/31 07:30:58;;;;;;;6.10;2.50;;;19.90;66.40;;;;;;5074064;28;20452;-73
2021/07/31 07:33:25;;;;;;;11.80;2.67;;;20.00;67.20;;;;;;5073939;28;20518;-73
2021/07/31 07:35:52;;;;;;;6.83;2.53;;;20.00;67.30;;;;;;5073625;28;20953;-73
2021/07/31 07:38:19;;;;;;;6.00;2.63;;;20.10;66.30;;;;;;5073628;28;20936;-73
2021/07/31 07:40:47;;;;;;;17.77;3.73;;;20.10;65.60;;;;;;5073589;28;21000;-73
2021/07/31 07:43:14;;;;;;;7.83;2.20;;;20.10;67.40;;;;;;5073787;28;20464;-73
2021/07/31 07:45:41;;;;;;;7.20;2.60;;;20.20;67.30;;;;;;5073821;28;20484;-72
2021/07/31 07:48:07;;;;;;;6.83;2.80;;;20.30;68.20;;;;;;5073722;28;20488;-73
2021/07/31 07:50:34;;;;;;;7.27;2.67;;;20.40;66.40;;;;;;5073780;28;20807;-73
2021/07/31 07:53:01;;;;;;;7.10;2.83;;;20.50;65.60;;;;;;5073729;28;20464;-73
2021/07/31 07:55:28;;;;;;;7.37;2.63;;;20.50;64.40;;;;;;5073691;28;20445;-73
2021/07/31 07:57:56;;;;;;;10.40;2.70;;;20.60;64.90;;;;;;5073665;28;20452;-73
2021/07/31 08:00:23;;;;;;;8.73;2.30;;;20.70;63.30;;;;;;5073409;28;20448;-73
2021/07/31 08:02:49;;;;;;;8.50;2.33;;;20.60;62.60;;;;;;5073614;28;20461;-73
2021/07/31 08:05:16;;;;;;;6.20;2.30;;;20.60;62.00;;;;;;5073636;28;20447;-73
2021/07/31 08:07:44;;;;;;;4.13;2.20;;;20.50;62.50;;;;;;5073463;28;20476;-73
2021/07/31 08:10:12;;;;;;;3.87;1.77;;;20.50;64.30;;;;;;5073522;28;20482;-73
2021/07/31 08:12:38;;;;;;;7.37;2.70;;;20.40;63.80;;;;;;5073133;28;20464;-73
2021/07/31 08:15:08;;;;;;;11.00;3.00;;;20.40;66.30;;;;;;5073502;28;20437;-73
2021/07/31 08:17:34;;;;;;;10.70;2.43;;;20.50;65.80;;;;;;5073432;28;20437;-73
2021/07/31 08:20:01;;;;;;;16.37;2.37;;;20.70;63.90;;;;;;5073481;28;20814;-73
2021/07/31 08:22:28;;;;;;;17.07;3.43;;;20.80;64.40;;;;;;5073082;28;20475;-73
2021/07/31 08:24:55;;;;;;;13.70;3.03;;;20.80;63.00;;;;;;5073446;28;20448;-73
2021/07/31 08:27:22;;;;;;;16.90;3.40;;;21.00;62.70;;;;;;5072960;28;20993;-73
2021/07/31 08:29:48;;;;;;;11.27;2.20;;;21.10;62.00;;;;;;5073377;28;20441;-73
2021/07/31 08:32:17;;;;;;;18.83;2.90;;;21.20;61.70;;;;;;5073337;28;20459;-73
2021/07/31 08:34:43;;;;;;;10.40;2.80;;;21.30;63.10;;;;;;5073294;28;20440;-73
2021/07/31 08:37:11;;;;;;;17.00;3.40;;;21.50;60.90;;;;;;5072992;28;21048;-71
2021/07/31 08:39:39;;;;;;;14.40;2.70;;;21.40;60.10;;;;;;5073251;28;20484;-72
2021/07/31 08:42:06;;;;;;;11.27;2.87;;;21.50;61.20;;;;;;5073257;28;20852;-72
2021/07/31 08:44:34;;;;;;;6.93;2.20;;;21.60;60.10;;;;;;5073202;28;20832;-72
2021/07/31 08:47:04;;;;;;;8.03;1.90;;;21.70;61.30;;;;;;5072783;28;20911;-73
2021/07/31 08:49:33;;;;;;;10.07;2.30;;;21.80;60.30;;;;;;5073154;28;20501;-72
2021/07/31 08:52:01;;;;;;;8.30;2.07;;;22.00;59.30;;;;;;5073186;28;20455;-72
2021/07/31 08:54:28;;;;;;;11.17;2.30;;;22.10;58.70;;;;;;5073035;28;20465;-72
2021/07/31 08:56:55;;;;;;;10.00;2.83;;;22.20;58.70;;;;;;5073203;28;20443;-74
2021/07/31 08:59:25;;;;;;;13.00;1.90;;;22.20;59.60;;;;;;5073870;28;20471;-72
2021/07/31 09:01:52;;;;;;;9.67;2.60;;;22.10;58.70;;;;;;5073073;28;20531;-72
2021/07/31 09:04:19;;;;;;;5.83;2.57;;;22.00;58.90;;;;;;5072973;28;20530;-74
2021/07/31 09:06:47;;;;;;;14.10;2.53;;;21.90;59.40;;;;;;5072900;28;20483;-73
2021/07/31 09:09:15;;;;;;;2.70;1.80;;;21.80;59.60;;;;;;5072978;28;20452;-73
2021/07/31 09:11:59;;;;;;;7.37;2.03;;;21.80;59.30;;;;;;5073565;28;20447;-73
2021/07/31 09:14:26;;;;;;;4.50;1.67;;;21.80;60.80;;;;;;5076306;28;20997;-74
2021/07/31 09:16:53;;;;;;;5.63;1.90;;;21.80;58.90;;;;;;5076679;28;20436;-72
2021/07/31 09:19:21;;;;;;;5.40;2.10;;;21.90;58.70;;;;;;5076301;28;20447;-72
2021/07/31 09:21:50;;;;;;;11.00;2.37;;;21.80;59.80;;;;;;5076364;28;20475;-72
2021/07/31 09:24:19;;;;;;;4.10;2.30;;;21.90;62.40;;;;;;5076443;28;20471;-73
2021/07/31 09:26:49;;;;;;;8.47;1.87;;;22.00;60.40;;;;;;5076380;28;20445;-72
2021/07/31 09:29:18;;;;;;;11.10;2.37;;;22.10;58.90;;;;;;5076397;28;20489;-72
2021/07/31 09:31:54;;;;;;;9.90;2.30;;;22.00;58.20;;;;;;5076385;28;20452;-72
2021/07/31 09:34:26;;;;;;;8.10;2.43;;;22.20;59.20;;;;;;5076024;28;20464;-72
2021/07/31 09:37:05;;;;;;;3.40;1.80;;;22.40;58.00;;;;;;5076276;28;20470;-72
2021/07/31 09:39:51;;;;;;;4.83;2.00;;;22.80;58.90;;;;;;5076381;28;20566;-72
2021/07/31 09:42:29;;;;;;;6.63;2.17;;;23.10;57.60;;;;;;5076218;28;20486;-74
2021/07/31 09:44:56;;;;;;;4.00;1.87;;;23.30;55.20;;;;;;5076633;28;20443;-74
2021/07/31 09:47:23;;;;;;;3.27;1.67;;;23.30;55.40;;;;;;5075938;28;20472;-74
2021/07/31 09:49:51;;;;;;;4.60;1.77;;;23.10;55.00;;;;;;5076021;28;20451;-74
2021/07/31 09:52:21;;;;;;;3.33;1.57;;;23.10;55.50;;;;;;5075996;28;20448;-74
2021/07/31 09:54:48;;;;;;;7.53;2.03;;;23.30;55.30;;;;;;5075682;28;20943;-73
2021/07/31 09:57:15;;;;;;;5.73;2.10;;;23.30;55.00;;;;;;5075893;28;20444;-74
2021/07/31 09:59:46;;;;;;;9.50;2.00;;;23.30;54.30;;;;;;5075870;28;20448;-72
2021/07/31 10:02:18;;;;;;;9.33;2.50;;;23.20;54.40;;;;;;5075814;28;20445;-72
2021/07/31 10:04:45;;;;;;;2.10;1.53;;;23.00;55.10;;;;;;5075705;28;20880;-74
2021/07/31 10:07:13;;;;;;;3.63;1.97;;;22.90;54.50;;;;;;5074120;28;20500;-72
2021/07/31 10:09:45;;;;;;;3.17;1.83;;;22.80;54.90;;;;;;5075709;28;20452;-72
2021/07/31 10:12:14;;;;;;;4.07;1.80;;;22.90;55.50;;;;;;5075705;28;20437;-72
2021/07/31 10:14:40;;;;;;;8.60;2.30;;;23.00;55.60;;;;;;5075546;28;20473;-74
2021/07/31 10:17:08;;;;;;;3.87;1.90;;;23.30;55.10;;;;;;5075583;28;20433;-72
2021/07/31 10:19:40;;;;;;;2.90;2.10;;;23.30;53.30;;;;;;5075206;28;21003;-72
2021/07/31 10:22:07;;;;;;;5.50;2.00;;;23.40;53.80;;;;;;5075126;28;20541;-72
2021/07/31 10:25:06;;;;;;;4.00;1.40;;;23.60;55.80;;;;;;5075336;28;20465;-72
2021/07/31 10:27:34;;;;;;;2.17;1.40;;;23.90;53.00;;;;;;5075055;28;20885;-72
2021/07/31 10:30:02;;;;;;;1.43;1.10;;;24.50;52.80;;;;;;5075043;28;20483;-72
2021/07/31 10:32:37;;;;;;;3.40;1.20;;;24.80;49.90;;;;;;5075208;28;20440;-73
2021/07/31 10:35:05;;;;;;;2.50;1.67;;;24.90;50.00;;;;;;5074935;28;20768;-73
2021/07/31 10:37:46;;;;;;;3.00;1.77;;;25.20;50.20;;;;;;5075130;28;20444;-72
2021/07/31 10:40:52;;;;;;;4.93;2.07;;;25.20;48.20;;;;;;5074813;28;20448;-73
2021/07/31 10:43:19;;;;;;;4.40;1.70;;;24.90;49.70;;;;;;5074952;28;20472;-72
2021/07/31 10:45:49;;;;;;;1.80;1.43;;;24.60;50.00;;;;;;5075114;28;20452;-73
2021/07/31 10:48:37;;;;;;;3.47;1.57;;;24.30;50.50;;;;;;5074831;28;20529;-74
2021/07/31 10:51:05;;;;;;;9.20;2.27;;;24.30;52.00;;;;;;5070354;28;20449;-74
2021/07/31 10:53:51;;;;;;;8.87;2.03;;;24.50;51.50;;;;;;5074513;28;20974;-74
2021/07/31 10:56:19;;;;;;;3.77;2.00;;;25.10;50.00;;;;;;5074730;28;20471;-74
2021/07/31 10:59:15;;;;;;;2.93;1.67;;;25.70;49.90;;;;;;5074420;28;20433;-72
2021/07/31 11:01:42;;;;;;;4.50;1.60;;;26.40;48.50;;;;;;5074644;28;20436;-72
2021/07/31 11:04:09;;;;;;;1.77;1.50;;;27.00;45.40;;;;;;5074541;28;20822;-73
2021/07/31 11:07:10;;;;;;;3.60;1.37;;;27.60;42.60;;;;;;5074596;28;20441;-73
2021/07/31 11:09:37;;;;;;;1.80;1.33;;;28.20;41.70;;;;;;5074496;28;20435;-74
2021/07/31 11:12:42;;;;;;;2.30;1.10;;;28.80;40.70;;;;;;5074443;28;20444;-74
2021/07/31 11:15:09;;;;;;;4.80;1.27;;;28.40;38.60;;;;;;5012398;28;20498;-73
2021/07/31 11:17:38;;;;;;;2.43;1.57;;;27.90;40.90;;;;;;5012472;28;20455;-74
2021/07/31 11:20:31;;;;;;;4.37;1.57;;;27.90;41.90;;;;;;5043068;28;20481;-74
2021/07/31 11:23:04;;;;;;;6.47;2.07;;;28.00;41.40;;;;;;5073777;28;20484;-75
2021/07/31 11:25:31;;;;;;;7.87;1.73;;;28.30;42.00;;;;;;5074248;28;20421;-74
2021/07/31 11:28:01;;;;;;;2.53;1.50;;;28.90;40.60;;;;;;5074053;28;20491;-72
2021/07/31 11:30:44;;;;;;;6.50;1.63;;;29.60;39.00;;;;;;5074102;28;20471;-74
2021/07/31 11:33:22;;;;;;;2.40;1.40;;;30.30;38.90;;;;;;5074011;28;20475;-74
2021/07/31 11:35:50;;;;;;;4.73;2.00;;;30.70;35.60;;;;;;5073189;28;20848;-73
2021/07/31 11:38:36;;;;;;;5.90;2.53;;;30.70;35.80;;;;;;5073965;28;20441;-74
2021/07/31 11:41:06;;;;;;;2.60;1.70;;;30.60;37.60;;;;;;5073668;28;20436;-73
2021/07/31 11:43:51;;;;;;;8.13;1.67;;;30.40;37.90;;;;;;5073831;28;20461;-73
2021/07/31 11:46:33;;;;;;;7.33;1.90;;;31.00;37.50;;;;;;5073875;28;20425;-74
2021/07/31 11:49:02;;;;;;;4.60;1.27;;;31.30;33.70;;;;;;5073740;28;20480;-74
2021/07/31 11:51:29;;;;;;;2.93;1.30;;;31.30;34.00;;;;;;5073781;28;20490;-73
2021/07/31 11:53:56;;;;;;;3.00;1.70;;;31.20;34.40;;;;;;5073703;28;20463;-74
2021/07/31 11:56:24;;;;;;;3.87;1.70;;;30.80;35.10;;;;;;5073752;28;20451;-73
2021/07/31 11:58:54;;;;;;;1.57;1.40;;;30.40;37.10;;;;;;5073684;28;20436;-72
2021/07/31 12:01:21;;;;;;;3.47;1.30;;;30.70;37.30;;;;;;5074316;28;20448;-74
2021/07/31 12:03:49;;;;;;;4.03;1.50;;;31.20;35.70;;;;;;5073326;28;20976;-73
2021/07/31 12:06:44;;;;;;;2.33;1.70;;;31.80;35.20;;;;;;5073657;28;20452;-73
2021/07/31 12:09:24;;;;;;;2.60;1.90;;;32.00;33.60;;;;;;5037832;28;20484;-73
2021/07/31 12:11:53;;;;;;;3.80;1.70;;;31.30;34.40;;;;;;5073555;28;20497;-74
2021/07/31 12:14:38;;;;;;;1.90;1.47;;;30.30;36.80;;;;;;5073487;28;20468;-74
2021/07/31 12:17:18;;;;;;;3.57;2.10;;;29.00;38.00;;;;;;5073540;28;20436;-74
2021/07/31 12:19:47;;;;;;;3.20;1.60;;;27.90;40.70;;;;;;5073092;28;20421;-74
2021/07/31 12:22:16;;;;;;;2.83;1.80;;;27.00;42.90;;;;;;5073035;28;20954;-74
2021/07/31 12:24:44;;;;;;;4.17;1.90;;;26.50;45.70;;;;;;5073349;28;20877;-74
2021/07/31 12:27:10;;;;;;;5.43;1.90;;;26.20;45.80;;;;;;5073078;28;20449;-74
2021/07/31 12:29:40;;;;;;;5.70;1.80;;;26.30;46.30;;;;;;5073318;28;20480;-74
2021/07/31 12:32:20;;;;;;;6.13;2.10;;;26.80;45.80;;;;;;5073362;28;20810;-74
2021/07/31 12:34:47;;;;;;;4.57;1.40;;;27.50;44.80;;;;;;5073380;28;20448;-74
2021/07/31 12:37:14;;;;;;;2.40;1.47;;;27.90;39.80;;;;;;5073350;28;20445;-74
2021/07/31 12:39:40;;;;;;;2.90;1.20;;;27.80;40.00;;;;;;5073357;28;20447;-74
2021/07/31 12:42:09;;;;;;;2.80;1.20;;;28.00;41.20;;;;;;5073295;28;20444;-74
2021/07/31 12:44:38;;;;;;;2.50;1.03;;;28.40;39.90;;;;;;5073201;28;20496;-74
2021/07/31 12:47:06;;;;;;;2.43;1.20;;;29.20;38.10;;;;;;5074876;28;20525;-74
2021/07/31 12:49:34;;;;;;;3.13;1.40;;;29.80;37.00;;;;;;5076881;28;21055;-74
2021/07/31 12:52:01;;;;;;;2.20;1.03;;;29.80;37.10;;;;;;5077432;28;20476;-73
2021/07/31 12:54:28;;;;;;;2.00;1.20;;;29.80;37.10;;;;;;5079311;28;20464;-72